EGPM/SCS METAR and TAF weather

Enter ICAO airport designator
Station Type Date Time Source
EGPM METAR 2019/06/20 07:20 UTC NOAA

EGPM 200720Z 07007KT 8000 -RA FEW002 SCT008 10/10 Q1002 TEMPO BKN006


Station Type Date Time Source
EGPM Decoded METAR 2019/06/20 07:20 UTC NOAA

Scatsa / Shetland Island, United Kingdom (EGPM) 60-26N 001-18W
Jun 20, 2019 - 03:20 AM EDT / 2019.06.20 0720 UTC
Wind: from the ENE (070 degrees) at 8 MPH (7 KT):0
Visibility: 4 mile(s):0
Sky conditions: partly cloudy
Weather: light rain
Temperature: 50 F (10 C)
Dew Point: 50 F (10 C)
Relative Humidity: 100%
Pressure (altimeter): 29.59 in. Hg (1002 hPa)
ob: EGPM 200720Z 07007KT 8000 -RA FEW002 SCT008 10/10 Q1002 TEMPO BKN006
cycle: 7

Station Type Date Time Source
EGPM TAF 2013/04/29 03:39 UTC NOAA

TAF TAF EGPM 290337Z 2903/2915 22005KT 9999 SCT030 PROB30
TEMPO 2903/2906 7000 SHRAGS
BECMG 2906/2909 32015KT PROB40
TEMPO 2906/2915 6000 SHRA SHGS BKN012CB

Example: see airport list